Time;durP1;ratioP1;P1;durP2;ratioP2;P2;SDS_P1;SDS_P2;PMS_P1;PMS_P2;Temp;Humidity;BMP_temperature;BMP_pressure;BME280_temperature;BME280_humidity;BME280_pressure;Samples;Min_cycle;Max_cycle;Signal;HPM_P1;HPM_P2
2023/08/18 00:00:00;;;;;;;0.03;0.03;;;22.70;91.60;;;;;;5083286;28;20381;-78
2023/08/18 00:02:26;;;;;;;0.28;0.10;;;22.70;91.90;;;;;;5076443;28;20081;-82
2023/08/18 00:04:52;;;;;;;0.38;0.38;;;22.50;92.20;;;;;;5084636;28;20024;-82
2023/08/18 00:07:17;;;;;;;3.83;1.17;;;22.40;92.70;;;;;;5083263;28;20536;-82
2023/08/18 00:09:43;;;;;;;0.23;0.23;;;22.30;93.40;;;;;;5083418;28;20107;-80
2023/08/18 00:12:12;;;;;;;0.00;0.00;;;22.20;94.10;;;;;;5083907;28;20038;-79
2023/08/18 00:14:38;;;;;;;0.13;0.10;;;22.10;95.10;;;;;;5080921;28;20079;-80
2023/08/18 00:17:03;;;;;;;0.87;0.47;;;22.00;95.20;;;;;;5083352;28;20162;-79
2023/08/18 00:19:29;;;;;;;0.10;0.10;;;22.00;95.80;;;;;;5083186;28;20072;-79
2023/08/18 00:21:55;;;;;;;0.37;0.37;;;22.00;96.00;;;;;;5083922;28;20081;-79
2023/08/18 00:24:21;;;;;;;0.10;0.10;;;22.00;96.30;;;;;;5079387;28;20063;-78
2023/08/18 00:26:47;;;;;;;0.10;0.10;;;22.00;96.60;;;;;;5083959;28;20045;-79
2023/08/18 00:29:13;;;;;;;0.03;0.03;;;21.90;96.80;;;;;;5077332;28;20032;-79
2023/08/18 00:31:39;;;;;;;0.00;0.00;;;21.90;97.10;;;;;;5082584;28;20039;-79
2023/08/18 00:34:05;;;;;;;0.00;0.00;;;21.90;97.10;;;;;;5083748;28;20481;-79
2023/08/18 00:36:31;;;;;;;0.00;0.00;;;21.90;97.00;;;;;;5083020;28;20493;-79
2023/08/18 00:39:01;;;;;;;0.08;0.08;;;21.90;97.10;;;;;;5082197;28;20044;-79
2023/08/18 00:41:27;;;;;;;0.10;0.10;;;21.90;97.40;;;;;;5083605;28;20024;-80
2023/08/18 00:43:52;;;;;;;0.10;0.10;;;21.90;97.40;;;;;;5068833;28;20059;-80
2023/08/18 00:46:19;;;;;;;0.87;0.73;;;21.90;97.50;;;;;;5076759;28;20121;-80
2023/08/18 00:48:45;;;;;;;0.43;0.43;;;21.90;97.50;;;;;;5082487;28;20039;-80
2023/08/18 00:51:11;;;;;;;0.00;0.00;;;21.90;97.40;;;;;;5081534;28;20032;-79
2023/08/18 00:53:40;;;;;;;0.10;0.10;;;22.00;97.50;;;;;;5082580;28;20056;-80
2023/08/18 00:56:07;;;;;;;10.65;3.40;;;22.00;97.00;;;;;;5078886;28;20028;-80
2023/08/18 00:58:36;;;;;;;0.00;0.00;;;22.00;97.20;;;;;;5080815;28;20043;-80
2023/08/18 01:01:02;;;;;;;0.00;0.00;;;22.00;96.80;;;;;;5077316;28;20029;-80
2023/08/18 01:03:28;;;;;;;0.10;0.10;;;22.00;96.70;;;;;;5081360;28;20854;-80
2023/08/18 01:05:54;;;;;;;;;;;21.90;96.90;;;;;;5083107;28;20587;-81
2023/08/18 01:08:20;;;;;;;0.10;0.10;;;21.90;97.10;;;;;;5082853;28;19978;-81
2023/08/18 01:11:02;;;;;;;0.00;0.00;;;21.80;97.30;;;;;;5082333;28;20060;-80
2023/08/18 01:13:54;;;;;;;0.00;0.00;;;21.80;97.10;;;;;;5082378;28;20099;-81
2023/08/18 01:16:27;;;;;;;0.00;0.00;;;21.80;97.20;;;;;;5075479;28;20119;-80
2023/08/18 01:18:54;;;;;;;0.00;0.00;;;21.70;97.40;;;;;;5081482;28;20032;-79
2023/08/18 01:21:23;;;;;;;0.13;0.10;;;21.70;97.60;;;;;;5082425;28;20039;-81
2023/08/18 01:23:49;;;;;;;0.00;0.00;;;21.60;97.80;;;;;;5080291;28;20040;-80
2023/08/18 01:26:15;;;;;;;0.10;0.10;;;21.50;97.90;;;;;;5082582;28;20043;-80
2023/08/18 01:28:43;;;;;;;0.10;0.10;;;21.50;98.20;;;;;;5082228;28;20102;-79
2023/08/18 01:31:15;;;;;;;0.00;0.00;;;21.40;98.30;;;;;;5082033;28;20036;-80
2023/08/18 01:33:49;;;;;;;0.00;0.00;;;21.40;98.40;;;;;;5082416;28;20605;-79
2023/08/18 01:36:22;;;;;;;0.10;0.10;;;21.30;98.50;;;;;;5081129;28;20024;-79
2023/08/18 01:38:51;;;;;;;0.55;0.55;;;21.30;98.80;;;;;;5081018;28;20024;-81
2023/08/18 01:41:23;;;;;;;0.00;0.00;;;21.20;99.30;;;;;;5079214;28;20115;-80
2023/08/18 01:43:49;;;;;;;0.00;0.00;;;21.10;99.80;;;;;;5080464;28;20036;-80
2023/08/18 01:46:15;;;;;;;0.00;0.00;;;21.10;99.90;;;;;;5081525;28;20035;-80
2023/08/18 01:48:41;;;;;;;0.00;0.00;;;21.00;99.90;;;;;;5081206;28;20574;-81
2023/08/18 01:51:06;;;;;;;0.10;0.10;;;20.90;99.90;;;;;;5078043;28;20060;-80
2023/08/18 01:53:32;;;;;;;0.00;0.00;;;20.90;99.90;;;;;;5080395;28;20028;-80
2023/08/18 01:56:02;;;;;;;0.00;0.00;;;20.90;99.90;;;;;;5080391;28;20046;-81
2023/08/18 01:58:28;;;;;;;0.25;0.25;;;20.80;99.90;;;;;;5079789;28;20050;-80
2023/08/18 02:00:58;;;;;;;0.10;0.10;;;20.80;99.90;;;;;;5079352;28;20109;-81
2023/08/18 02:03:27;;;;;;;0.00;0.00;;;20.80;99.90;;;;;;5075881;28;20068;-81
2023/08/18 02:05:54;;;;;;;0.28;0.28;;;20.80;99.90;;;;;;5079834;28;20032;-81
2023/08/18 02:08:21;;;;;;;0.00;0.00;;;20.80;99.90;;;;;;5075000;28;20417;-80
2023/08/18 02:10:47;;;;;;;0.10;0.10;;;20.90;99.90;;;;;;5083722;28;20031;-80
2023/08/18 02:13:13;;;;;;;0.00;0.00;;;20.90;99.90;;;;;;5082794;28;20040;-81
2023/08/18 02:15:39;;;;;;;0.00;0.00;;;20.90;99.90;;;;;;5082894;28;20278;-80
2023/08/18 02:18:05;;;;;;;0.00;0.00;;;20.90;99.90;;;;;;5082233;28;20036;-79
2023/08/18 02:20:30;;;;;;;0.00;0.00;;;20.90;99.90;;;;;;5085021;28;20537;-80
2023/08/18 02:22:56;;;;;;;0.00;0.00;;;20.90;99.90;;;;;;5082536;28;20625;-80
2023/08/18 02:25:22;;;;;;;0.00;0.00;;;20.80;99.90;;;;;;5083734;28;20031;-81
2023/08/18 02:27:49;;;;;;;0.08;0.08;;;20.80;99.90;;;;;;5084199;28;20031;-80
2023/08/18 02:30:15;;;;;;;0.00;0.00;;;20.80;99.90;;;;;;5083967;28;20122;-82
2023/08/18 02:32:41;;;;;;;0.00;0.00;;;20.70;99.90;;;;;;5084066;28;20119;-82
2023/08/18 02:35:07;;;;;;;1.02;0.25;;;20.70;99.90;;;;;;5078859;28;20036;-80
2023/08/18 02:37:33;;;;;;;0.20;0.20;;;20.60;99.90;;;;;;5083146;28;20058;-81
2023/08/18 02:39:59;;;;;;;0.27;0.27;;;20.60;99.90;;;;;;5082692;28;20098;-81
2023/08/18 02:42:24;;;;;;;0.27;0.27;;;20.50;99.90;;;;;;5084069;28;20055;-80
2023/08/18 02:44:50;;;;;;;0.80;0.47;;;20.50;99.90;;;;;;5084177;28;20445;-82
2023/08/18 02:47:16;;;;;;;0.10;0.10;;;20.40;99.90;;;;;;5083664;28;20278;-80
2023/08/18 02:49:42;;;;;;;1.10;0.70;;;20.40;99.90;;;;;;5084072;28;20090;-80
2023/08/18 02:52:09;;;;;;;0.20;0.20;;;20.40;99.90;;;;;;5079829;28;20028;-80
2023/08/18 02:54:35;;;;;;;0.00;0.00;;;20.30;99.90;;;;;;5085576;28;20069;-80
2023/08/18 02:57:01;;;;;;;0.03;0.03;;;20.40;99.90;;;;;;5085091;28;20024;-80
2023/08/18 02:59:27;;;;;;;0.00;0.00;;;20.40;99.90;;;;;;5083733;28;20043;-80
2023/08/18 03:01:53;;;;;;;0.10;0.10;;;20.40;99.90;;;;;;5084651;28;20035;-81
2023/08/18 03:04:18;;;;;;;0.00;0.00;;;20.50;99.90;;;;;;5084979;28;20047;-79
2023/08/18 03:06:44;;;;;;;0.00;0.00;;;20.50;99.90;;;;;;5084587;28;20044;-79
2023/08/18 03:09:10;;;;;;;0.00;0.00;;;20.60;99.90;;;;;;5084457;28;20042;-80
2023/08/18 03:11:36;;;;;;;0.00;0.00;;;20.60;99.90;;;;;;5085085;28;20024;-80
2023/08/18 03:14:02;;;;;;;0.20;0.20;;;20.60;99.90;;;;;;5084850;28;20695;-81
2023/08/18 03:16:28;;;;;;;0.47;0.47;;;20.60;99.90;;;;;;5082745;28;20032;-81
2023/08/18 03:18:53;;;;;;;0.00;0.00;;;20.60;99.90;;;;;;5086137;28;20435;-80
2023/08/18 03:21:19;;;;;;;1.60;1.30;;;20.60;99.90;;;;;;5080136;28;20043;-81
2023/08/18 03:23:45;;;;;;;0.30;0.30;;;20.50;99.90;;;;;;5085069;28;20078;-80
2023/08/18 03:26:10;;;;;;;0.20;0.20;;;20.50;99.90;;;;;;5083577;28;20028;-80
2023/08/18 03:28:37;;;;;;;0.00;0.00;;;20.50;99.90;;;;;;5081866;28;20034;-81
2023/08/18 03:31:05;;;;;;;0.13;0.13;;;20.40;99.90;;;;;;5084605;28;20020;-80
2023/08/18 03:33:31;;;;;;;0.08;0.08;;;20.40;99.90;;;;;;5083154;28;20839;-80
2023/08/18 03:35:57;;;;;;;0.00;0.00;;;20.30;99.90;;;;;;5084491;28;20020;-80
2023/08/18 03:38:23;;;;;;;0.00;0.00;;;20.20;99.90;;;;;;5085517;28;20032;-81
2023/08/18 03:41:19;;;;;;;0.10;0.10;;;20.20;99.90;;;;;;5085168;28;20075;-80
2023/08/18 03:43:45;;;;;;;;;;;20.20;99.90;;;;;;5067082;28;20025;-80
2023/08/18 03:46:22;;;;;;;0.00;0.00;;;20.20;99.90;;;;;;5084120;28;20630;-79
2023/08/18 03:48:48;;;;;;;2.35;2.15;;;20.20;99.90;;;;;;5082756;28;20361;-80
2023/08/18 03:51:14;;;;;;;0.10;0.10;;;20.20;99.90;;;;;;5083402;28;20568;-80
2023/08/18 03:53:40;;;;;;;0.00;0.00;;;20.30;99.90;;;;;;5082740;28;20031;-80
2023/08/18 03:56:06;;;;;;;0.00;0.00;;;20.30;99.90;;;;;;5080020;28;20475;-80
2023/08/18 03:58:33;;;;;;;0.17;0.17;;;20.30;99.90;;;;;;5084322;28;20032;-81
2023/08/18 04:01:04;;;;;;;;;;;20.20;99.90;;;;;;5084273;28;20047;-80
2023/08/18 04:03:30;;;;;;;0.00;0.00;;;20.20;99.90;;;;;;5084253;28;20390;-80
2023/08/18 04:05:56;;;;;;;0.10;0.10;;;20.00;99.90;;;;;;5083593;28;20139;-80
2023/08/18 04:08:22;;;;;;;0.17;0.17;;;20.00;99.90;;;;;;5084172;28;20314;-83
2023/08/18 04:10:48;;;;;;;0.00;0.00;;;20.10;99.90;;;;;;5084558;28;20091;-81
2023/08/18 04:13:13;;;;;;;0.67;0.57;;;20.00;99.90;;;;;;5083458;28;20028;-82
2023/08/18 04:15:39;;;;;;;0.10;0.10;;;20.00;99.90;;;;;;5082147;28;20067;-81
2023/08/18 04:18:05;;;;;;;0.07;0.07;;;20.00;99.90;;;;;;5080171;28;20025;-81
2023/08/18 04:20:31;;;;;;;0.00;0.00;;;19.90;99.90;;;;;;5083950;28;20085;-80
2023/08/18 04:22:57;;;;;;;;;;;19.90;99.90;;;;;;5083945;28;20024;-81
2023/08/18 04:25:23;;;;;;;0.07;0.07;;;19.80;99.90;;;;;;5078629;28;19931;-80
2023/08/18 04:27:49;;;;;;;0.00;0.00;;;19.80;99.90;;;;;;5083795;28;20036;-82
2023/08/18 04:30:14;;;;;;;0.00;0.00;;;19.60;99.90;;;;;;5083435;28;20040;-80
2023/08/18 04:32:41;;;;;;;0.37;0.37;;;19.60;99.90;;;;;;5083219;28;20032;-79
2023/08/18 04:35:07;;;;;;;0.00;0.00;;;19.50;99.90;;;;;;5081816;28;20028;-77
2023/08/18 04:37:32;;;;;;;3.10;0.70;;;19.50;99.90;;;;;;5083509;28;20023;-78
2023/08/18 04:39:58;;;;;;;0.40;0.37;;;19.50;99.90;;;;;;5082706;28;20040;-79
2023/08/18 04:42:24;;;;;;;0.10;0.10;;;19.50;99.90;;;;;;5083551;28;20028;-77
2023/08/18 04:44:50;;;;;;;0.10;0.10;;;19.40;99.90;;;;;;5083425;28;20028;-77
2023/08/18 04:47:17;;;;;;;;;;;19.50;99.90;;;;;;5084086;28;20454;-77
2023/08/18 04:49:43;;;;;;;0.00;0.00;;;19.50;99.90;;;;;;5084835;28;20003;-78
2023/08/18 04:52:10;;;;;;;0.10;0.10;;;19.50;99.90;;;;;;5082789;28;20032;-76
2023/08/18 04:54:36;;;;;;;0.28;0.28;;;19.50;99.90;;;;;;5083678;28;20150;-77
2023/08/18 04:57:03;;;;;;;0.00;0.00;;;19.50;99.90;;;;;;5083376;28;20028;-77
2023/08/18 04:59:29;;;;;;;0.00;0.00;;;19.50;99.90;;;;;;5083837;28;20040;-77
2023/08/18 05:01:55;;;;;;;0.17;0.17;;;19.60;99.90;;;;;;5080571;28;20074;-79
2023/08/18 05:04:22;;;;;;;0.00;0.00;;;19.60;99.90;;;;;;5083082;28;20043;-78
2023/08/18 05:06:47;;;;;;;;;;;19.50;99.90;;;;;;5078349;28;20048;-78
2023/08/18 05:09:13;;;;;;;0.10;0.10;;;19.40;99.90;;;;;;5082838;28;19927;-78
2023/08/18 05:11:39;;;;;;;0.00;0.00;;;19.40;99.90;;;;;;5078720;28;20035;-81
2023/08/18 05:14:06;;;;;;;0.00;0.00;;;19.50;99.90;;;;;;5080427;28;20055;-78
2023/08/18 05:16:32;;;;;;;0.00;0.00;;;19.50;99.90;;;;;;5082172;28;20193;-78
2023/08/18 05:19:01;;;;;;;0.00;0.00;;;19.50;99.90;;;;;;5080934;28;20024;-78
2023/08/18 05:21:26;;;;;;;0.00;0.00;;;19.50;99.90;;;;;;5079597;28;20032;-77
2023/08/18 05:23:52;;;;;;;0.00;0.00;;;19.60;99.90;;;;;;5079405;28;20077;-79
2023/08/18 05:26:18;;;;;;;0.00;0.00;;;19.60;99.90;;;;;;5079750;28;20062;-77
2023/08/18 05:28:44;;;;;;;0.00;0.00;;;19.50;99.90;;;;;;5080398;28;20498;-76
2023/08/18 05:31:10;;;;;;;0.00;0.00;;;19.50;99.90;;;;;;5080887;28;20035;-76
2023/08/18 05:33:37;;;;;;;0.45;0.25;;;19.60;99.90;;;;;;5080254;28;20083;-76
2023/08/18 05:36:05;;;;;;;0.00;0.00;;;19.60;99.90;;;;;;5080046;28;20044;-77
2023/08/18 05:38:31;;;;;;;0.00;0.00;;;19.60;99.90;;;;;;5076504;28;20387;-76
2023/08/18 05:41:09;;;;;;;0.13;0.13;;;19.60;99.90;;;;;;5074423;28;20576;-78
2023/08/18 05:43:37;;;;;;;0.00;0.00;;;19.90;99.90;;;;;;5081922;28;20056;-77
2023/08/18 05:46:04;;;;;;;0.00;0.00;;;20.80;99.90;;;;;;5080844;28;20024;-78
2023/08/18 05:48:32;;;;;;;0.00;0.00;;;21.10;99.30;;;;;;5082885;28;20051;-78
2023/08/18 05:51:01;;;;;;;3.55;0.85;;;21.80;99.00;;;;;;5082234;28;20124;-76
2023/08/18 05:53:27;;;;;;;0.40;0.40;;;22.20;97.60;;;;;;5077028;28;20031;-75
2023/08/18 05:55:53;;;;;;;0.10;0.10;;;22.30;97.60;;;;;;5081519;28;20335;-75
2023/08/18 05:58:19;;;;;;;0.00;0.00;;;22.40;96.10;;;;;;5083282;28;20039;-76
2023/08/18 06:00:47;;;;;;;0.55;0.55;;;23.00;95.30;;;;;;5082038;28;20107;-74
2023/08/18 06:03:13;;;;;;;0.00;0.00;;;22.50;96.30;;;;;;5082790;28;20115;-75
2023/08/18 06:05:39;;;;;;;0.00;0.00;;;21.90;96.90;;;;;;5082786;28;20864;-76
2023/08/18 06:08:05;;;;;;;0.00;0.00;;;21.80;97.90;;;;;;5082652;28;20077;-76
2023/08/18 06:10:31;;;;;;;0.13;0.13;;;22.70;95.50;;;;;;5082438;28;20035;-76
2023/08/18 06:12:56;;;;;;;0.10;0.10;;;23.50;94.80;;;;;;5083329;28;20814;-76
2023/08/18 06:15:23;;;;;;;0.00;0.00;;;23.90;93.10;;;;;;5082472;28;20024;-78
2023/08/18 06:17:49;;;;;;;0.00;0.00;;;24.60;93.10;;;;;;5082248;28;20346;-78
2023/08/18 06:20:15;;;;;;;0.00;0.00;;;24.90;91.10;;;;;;5081575;28;20628;-78
2023/08/18 06:22:40;;;;;;;0.00;0.00;;;25.30;90.00;;;;;;5081851;28;20143;-75
2023/08/18 06:25:07;;;;;;;0.00;0.00;;;25.60;90.50;;;;;;5081831;28;20028;-78
2023/08/18 06:27:33;;;;;;;0.00;0.00;;;25.10;90.90;;;;;;5082095;28;20269;-76
2023/08/18 06:29:59;;;;;;;0.00;0.00;;;25.30;90.50;;;;;;5084712;28;20058;-76
2023/08/18 06:32:25;;;;;;;0.00;0.00;;;25.80;88.30;;;;;;5075011;28;20040;-75
2023/08/18 06:34:51;;;;;;;0.00;0.00;;;26.60;89.10;;;;;;5077003;28;20064;-76
2023/08/18 06:37:18;;;;;;;0.00;0.00;;;25.50;86.70;;;;;;5081561;28;20067;-76
2023/08/18 06:39:43;;;;;;;0.00;0.00;;;24.70;90.60;;;;;;5081243;28;20147;-76
2023/08/18 06:42:09;;;;;;;0.00;0.00;;;25.20;89.50;;;;;;5081913;28;20503;-74
2023/08/18 06:44:35;;;;;;;0.00;0.00;;;24.70;90.80;;;;;;5081968;28;20028;-75
2023/08/18 06:47:01;;;;;;;0.00;0.00;;;25.50;90.20;;;;;;5082501;28;20711;-75
2023/08/18 06:49:27;;;;;;;;;;;26.40;86.30;;;;;;5082498;28;20047;-76
2023/08/18 06:51:53;;;;;;;0.90;0.70;;;25.70;89.10;;;;;;5080624;28;20393;-75
2023/08/18 06:54:18;;;;;;;2.53;0.75;;;26.10;86.40;;;;;;5082580;28;20576;-76
2023/08/18 06:56:44;;;;;;;0.00;0.00;;;26.40;85.80;;;;;;5081976;28;20266;-75
2023/08/18 06:59:12;;;;;;;0.00;0.00;;;27.10;85.50;;;;;;5085851;28;20070;-76
2023/08/18 07:01:38;;;;;;;0.00;0.00;;;28.00;82.80;;;;;;5085555;28;20495;-76
2023/08/18 07:04:04;;;;;;;;;;;28.90;80.10;;;;;;5086326;28;20120;-75
2023/08/18 07:06:34;;;;;;;0.00;0.00;;;28.80;75.30;;;;;;5085032;28;19920;-75
2023/08/18 07:09:01;;;;;;;0.10;0.10;;;29.20;79.00;;;;;;5085877;28;20054;-75
2023/08/18 07:11:27;;;;;;;0.00;0.00;;;28.80;76.40;;;;;;5085838;28;20023;-74
2023/08/18 07:13:52;;;;;;;0.00;0.00;;;29.80;73.90;;;;;;5086253;28;20024;-76
2023/08/18 07:16:18;;;;;;;0.00;0.00;;;29.80;73.00;;;;;;5085558;28;20042;-75
2023/08/18 07:18:44;;;;;;;;;;;30.30;71.50;;;;;;5086033;28;20573;-75
2023/08/18 07:21:09;;;;;;;0.00;0.00;;;30.40;72.00;;;;;;5085372;28;20011;-76
2023/08/18 07:23:35;;;;;;;0.00;0.00;;;30.40;72.10;;;;;;5086012;28;20020;-76
2023/08/18 07:26:02;;;;;;;;;;;30.80;70.50;;;;;;5085743;28;20104;-75
2023/08/18 07:28:28;;;;;;;0.00;0.00;;;30.90;69.90;;;;;;5084968;28;19918;-76
2023/08/18 07:30:53;;;;;;;;;;;31.00;71.90;;;;;;5077976;28;20020;-75
2023/08/18 07:33:20;;;;;;;0.00;0.00;;;31.00;68.40;;;;;;5085167;28;19912;-76
2023/08/18 07:35:46;;;;;;;0.03;0.03;;;31.90;68.10;;;;;;5085053;28;20554;-75
2023/08/18 07:38:12;;;;;;;0.00;0.00;;;31.60;65.30;;;;;;5083698;28;20016;-75
2023/08/18 07:40:38;;;;;;;0.00;0.00;;;31.90;66.20;;;;;;5083373;28;20035;-76
2023/08/18 07:43:03;;;;;;;0.00;0.00;;;32.50;63.40;;;;;;5084085;28;20490;-75
2023/08/18 07:45:29;;;;;;;0.00;0.00;;;32.70;64.60;;;;;;5084238;28;20111;-75
2023/08/18 07:47:55;;;;;;;0.00;0.00;;;33.10;60.20;;;;;;5081135;28;20483;-75
2023/08/18 07:50:21;;;;;;;0.00;0.00;;;33.80;65.10;;;;;;5084311;28;20059;-75
2023/08/18 07:52:47;;;;;;;0.00;0.00;;;34.30;59.80;;;;;;5079771;28;20032;-75
2023/08/18 07:55:13;;;;;;;0.00;0.00;;;34.60;59.30;;;;;;5084255;28;20388;-76
2023/08/18 07:57:39;;;;;;;0.00;0.00;;;34.50;58.40;;;;;;5084861;28;20032;-75
2023/08/18 08:00:16;;;;;;;0.00;0.00;;;34.80;58.40;;;;;;5082702;28;20043;-76
2023/08/18 08:02:42;;;;;;;0.00;0.00;;;34.90;57.30;;;;;;5082356;28;20028;-76
2023/08/18 08:05:08;;;;;;;0.00;0.00;;;34.40;58.90;;;;;;5084187;28;20032;-76
2023/08/18 08:07:34;;;;;;;0.00;0.00;;;34.80;57.40;;;;;;5081899;28;20054;-75
2023/08/18 08:10:04;;;;;;;0.00;0.00;;;35.30;57.10;;;;;;5084211;28;20039;-76
2023/08/18 08:12:31;;;;;;;0.00;0.00;;;34.80;55.60;;;;;;5084576;28;20032;-75
2023/08/18 08:14:57;;;;;;;0.00;0.00;;;34.90;57.80;;;;;;5080670;28;20069;-75
2023/08/18 08:17:23;;;;;;;0.00;0.00;;;34.70;57.20;;;;;;5082434;28;20039;-75
2023/08/18 08:19:49;;;;;;;0.20;0.20;;;35.60;57.00;;;;;;5083298;28;20044;-76
2023/08/18 08:22:16;;;;;;;0.10;0.10;;;35.50;55.40;;;;;;5083573;28;20042;-76
2023/08/18 08:24:42;;;;;;;0.00;0.00;;;35.60;55.30;;;;;;5081999;28;20019;-75
2023/08/18 08:27:08;;;;;;;0.00;0.00;;;36.50;56.00;;;;;;5083689;28;20020;-75
2023/08/18 08:29:34;;;;;;;0.00;0.00;;;37.80;55.50;;;;;;5083734;28;20035;-75
2023/08/18 08:32:00;;;;;;;0.00;0.00;;;36.90;54.30;;;;;;5083706;28;20643;-75
2023/08/18 08:34:26;;;;;;;0.00;0.00;;;34.90;56.40;;;;;;5083552;28;20020;-76
2023/08/18 08:36:52;;;;;;;3.42;1.23;;;35.80;58.30;;;;;;5083345;28;21567;-75
2023/08/18 08:39:18;;;;;;;0.00;0.00;;;37.00;54.80;;;;;;5083485;28;20031;-75
2023/08/18 08:41:43;;;;;;;0.10;0.10;;;36.90;54.70;;;;;;5084167;28;20032;-78
2023/08/18 08:44:09;;;;;;;0.00;0.00;;;36.50;56.20;;;;;;5084030;28;20110;-76
2023/08/18 08:46:37;;;;;;;0.00;0.00;;;34.70;60.20;;;;;;5082048;28;20031;-77
2023/08/18 08:49:05;;;;;;;0.00;0.00;;;33.10;55.60;;;;;;5083113;28;20074;-77
2023/08/18 08:51:36;;;;;;;0.00;0.00;;;32.90;56.80;;;;;;5079606;28;20071;-75
2023/08/18 08:54:06;;;;;;;0.03;0.03;;;33.10;56.60;;;;;;5081974;28;20364;-75
2023/08/18 08:56:34;;;;;;;0.00;0.00;;;33.40;52.30;;;;;;5082768;28;20470;-75
2023/08/18 08:59:00;;;;;;;0.00;0.00;;;32.80;55.80;;;;;;5082354;28;20031;-76
2023/08/18 09:01:26;;;;;;;0.00;0.00;;;32.50;53.30;;;;;;5082699;28;20063;-75
2023/08/18 09:03:53;;;;;;;0.00;0.00;;;32.10;55.90;;;;;;5083553;28;20178;-76
2023/08/18 09:06:19;;;;;;;0.00;0.00;;;31.70;54.70;;;;;;5082748;28;20036;-75
2023/08/18 09:08:44;;;;;;;;;;;32.00;54.20;;;;;;5083231;28;20113;-75
2023/08/18 09:11:10;;;;;;;0.00;0.00;;;32.50;54.10;;;;;;5083083;28;19908;-75
2023/08/18 09:13:36;;;;;;;;;;;32.20;55.00;;;;;;5075234;28;20028;-76
2023/08/18 09:16:06;;;;;;;0.15;0.15;;;32.40;54.30;;;;;;5083236;28;20354;-75
2023/08/18 09:18:33;;;;;;;0.00;0.00;;;32.10;55.00;;;;;;5083093;28;20012;-75
2023/08/18 09:21:04;;;;;;;0.00;0.00;;;32.00;57.60;;;;;;5083055;28;20043;-75
2023/08/18 09:23:30;;;;;;;0.00;0.00;;;33.80;60.10;;;;;;5076237;28;20023;-76
2023/08/18 09:25:59;;;;;;;0.00;0.00;;;37.30;56.20;;;;;;5082011;28;20024;-77
2023/08/18 09:28:26;;;;;;;0.00;0.00;;;38.00;50.80;;;;;;5077286;28;20016;-75
2023/08/18 09:30:52;;;;;;;0.00;0.00;;;37.70;52.00;;;;;;5082378;28;20020;-75
2023/08/18 09:33:21;;;;;;;0.10;0.10;;;36.40;47.60;;;;;;5080747;28;20031;-76
2023/08/18 09:35:56;;;;;;;0.00;0.00;;;36.20;51.00;;;;;;5082714;28;20024;-75
2023/08/18 09:38:24;;;;;;;0.00;0.00;;;36.90;46.30;;;;;;5076948;28;20024;-75
2023/08/18 09:40:55;;;;;;;0.00;0.00;;;38.10;46.70;;;;;;5081994;28;20121;-75
2023/08/18 09:43:22;;;;;;;0.00;0.00;;;39.20;45.20;;;;;;5076961;28;20024;-75
2023/08/18 09:45:48;;;;;;;0.00;0.00;;;40.10;43.60;;;;;;5081139;28;20111;-76
2023/08/18 09:48:15;;;;;;;0.00;0.00;;;39.40;43.00;;;;;;5081559;28;20107;-75
2023/08/18 09:50:45;;;;;;;0.00;0.00;;;39.70;46.60;;;;;;5079352;28;20028;-75
2023/08/18 09:53:14;;;;;;;0.00;0.00;;;37.50;45.20;;;;;;5076613;28;20225;-77
2023/08/18 09:55:46;;;;;;;0.00;0.00;;;35.60;45.80;;;;;;5081151;28;20024;-76
2023/08/18 09:58:40;;;;;;;0.00;0.00;;;33.90;48.30;;;;;;5073604;28;20021;-76
2023/08/18 10:01:09;;;;;;;0.00;0.00;;;33.10;48.90;;;;;;5075700;28;20036;-76
2023/08/18 10:03:40;;;;;;;0.10;0.10;;;36.00;46.70;;;;;;5074329;28;20643;-75
2023/08/18 10:06:07;;;;;;;0.30;0.30;;;38.20;44.50;;;;;;5073951;28;20028;-75
2023/08/18 10:08:34;;;;;;;0.00;0.00;;;38.80;43.40;;;;;;5080560;28;20159;-75
2023/08/18 10:11:03;;;;;;;0.32;0.32;;;38.40;42.90;;;;;;5078314;28;20020;-76
2023/08/18 10:13:33;;;;;;;0.20;0.20;;;39.90;47.90;;;;;;5075530;28;20028;-76
2023/08/18 10:16:01;;;;;;;0.03;0.03;;;39.50;44.20;;;;;;5072096;28;20483;-76
2023/08/18 10:18:27;;;;;;;0.80;0.75;;;38.30;43.20;;;;;;5082073;28;20402;-75
2023/08/18 10:20:55;;;;;;;0.17;0.10;;;38.00;41.40;;;;;;5082526;28;20040;-75
2023/08/18 10:23:23;;;;;;;0.30;0.10;;;38.50;41.90;;;;;;5081961;28;20028;-75
2023/08/18 10:25:50;;;;;;;0.00;0.00;;;38.20;41.60;;;;;;5081320;28;20020;-76
2023/08/18 10:28:20;;;;;;;0.00;0.00;;;36.60;43.20;;;;;;5081735;28;20068;-75
2023/08/18 10:31:00;;;;;;;0.00;0.00;;;35.00;46.20;;;;;;5083872;28;20027;-75
2023/08/18 10:33:52;;;;;;;0.10;0.10;;;34.80;45.60;;;;;;5076067;28;20039;-75
2023/08/18 10:36:26;;;;;;;0.00;0.00;;;33.90;46.50;;;;;;5082562;28;20046;-75
2023/08/18 10:38:54;;;;;;;0.00;0.00;;;34.80;47.50;;;;;;5085482;28;20032;-78
2023/08/18 10:41:28;;;;;;;0.00;0.00;;;34.40;47.50;;;;;;5085807;28;20036;-76
2023/08/18 10:43:57;;;;;;;0.00;0.00;;;34.20;47.40;;;;;;5085471;28;20499;-75
2023/08/18 10:46:36;;;;;;;0.00;0.00;;;33.50;46.40;;;;;;5085342;28;20016;-75
2023/08/18 10:49:02;;;;;;;0.03;0.03;;;33.70;47.20;;;;;;5085368;28;20107;-76
2023/08/18 10:51:28;;;;;;;;;;;33.40;47.30;;;;;;5085433;28;20099;-75
2023/08/18 10:53:54;;;;;;;0.00;0.00;;;33.70;48.80;;;;;;5085270;28;19908;-75
2023/08/18 10:56:19;;;;;;;0.00;0.00;;;34.10;50.40;;;;;;5084447;28;20024;-75
2023/08/18 10:58:45;;;;;;;;;;;33.90;47.90;;;;;;5085538;28;20016;-75
2023/08/18 11:01:11;;;;;;;0.00;0.00;;;34.00;46.50;;;;;;5084364;28;19966;-74
2023/08/18 11:03:38;;;;;;;0.10;0.10;;;34.00;47.40;;;;;;5084962;28;20031;-76
2023/08/18 11:06:05;;;;;;;0.00;0.00;;;34.20;48.00;;;;;;5084967;28;20024;-75
2023/08/18 11:08:31;;;;;;;0.28;0.28;;;34.50;47.50;;;;;;5085206;28;20079;-74
2023/08/18 11:10:56;;;;;;;0.00;0.00;;;34.20;46.30;;;;;;5085024;28;20966;-75
2023/08/18 11:13:22;;;;;;;;;;;34.70;48.10;;;;;;5085927;28;20538;-75
2023/08/18 11:15:56;;;;;;;0.13;0.13;;;34.80;46.80;;;;;;5081230;28;20719;-75
2023/08/18 11:18:23;;;;;;;0.00;0.00;;;34.70;46.30;;;;;;5084258;28;20031;-76
2023/08/18 11:20:51;;;;;;;0.00;0.00;;;34.70;48.00;;;;;;5082739;28;20546;-76
2023/08/18 11:23:17;;;;;;;0.00;0.00;;;34.90;45.80;;;;;;5082669;28;20024;-75
2023/08/18 11:25:45;;;;;;;0.00;0.00;;;34.80;50.10;;;;;;5082432;28;20020;-75
2023/08/18 11:28:12;;;;;;;0.00;0.00;;;35.10;47.50;;;;;;5082864;28;20024;-76
2023/08/18 11:30:38;;;;;;;0.00;0.00;;;35.10;48.00;;;;;;5084369;28;20123;-75
2023/08/18 11:33:04;;;;;;;0.00;0.00;;;35.10;47.20;;;;;;5083596;28;20118;-75
2023/08/18 11:35:31;;;;;;;0.00;0.00;;;35.40;46.90;;;;;;5084028;28;20027;-75
2023/08/18 11:37:57;;;;;;;0.00;0.00;;;34.90;47.10;;;;;;5083626;28;20024;-74
2023/08/18 11:40:23;;;;;;;0.10;0.10;;;34.10;45.80;;;;;;5084219;28;20086;-76
2023/08/18 11:42:51;;;;;;;0.00;0.00;;;33.70;48.40;;;;;;5081442;28;20927;-76
2023/08/18 11:45:23;;;;;;;0.28;0.28;;;33.70;49.90;;;;;;5084208;28;20009;-77
2023/08/18 11:47:57;;;;;;;0.00;0.00;;;33.00;47.50;;;;;;5082858;28;20028;-75
2023/08/18 11:50:33;;;;;;;0.90;0.43;;;32.70;46.70;;;;;;5084704;28;20097;-75
2023/08/18 11:52:59;;;;;;;0.00;0.00;;;32.60;48.20;;;;;;5082005;28;20077;-75
2023/08/18 11:55:35;;;;;;;0.00;0.00;;;32.80;48.90;;;;;;5083962;28;20024;-76
2023/08/18 11:58:05;;;;;;;0.00;0.00;;;32.30;47.80;;;;;;5083610;28;20031;-75
2023/08/18 12:00:36;;;;;;;0.00;0.00;;;32.10;46.70;;;;;;5083803;28;20028;-74
2023/08/18 12:03:03;;;;;;;0.00;0.00;;;31.90;52.80;;;;;;5082046;28;20310;-75
2023/08/18 12:05:30;;;;;;;0.32;0.32;;;31.80;49.60;;;;;;5083397;28;20053;-75
2023/08/18 12:08:00;;;;;;;0.00;0.00;;;31.60;47.30;;;;;;5082946;28;20059;-76
2023/08/18 12:10:26;;;;;;;0.00;0.00;;;31.60;47.10;;;;;;5083979;28;20301;-75
2023/08/18 12:12:52;;;;;;;;;;;31.70;48.40;;;;;;5084325;28;20504;-75
2023/08/18 12:15:19;;;;;;;0.00;0.00;;;31.80;49.50;;;;;;5082001;28;19961;-75
2023/08/18 12:17:44;;;;;;;0.65;0.35;;;31.80;50.00;;;;;;5084083;28;20032;-74
2023/08/18 12:20:10;;;;;;;0.00;0.00;;;31.70;47.90;;;;;;5084735;28;20372;-75
2023/08/18 12:22:36;;;;;;;0.20;0.10;;;31.70;49.20;;;;;;5083475;28;20124;-75
2023/08/18 12:25:05;;;;;;;0.00;0.00;;;31.60;48.70;;;;;;5083205;28;20020;-75
2023/08/18 12:27:31;;;;;;;0.00;0.00;;;31.60;48.90;;;;;;5083801;28;20034;-75
2023/08/18 12:29:57;;;;;;;0.00;0.00;;;31.60;49.50;;;;;;5083551;28;20024;-76
2023/08/18 12:32:22;;;;;;;0.17;0.17;;;31.70;47.60;;;;;;5083281;28;20443;-77
2023/08/18 12:34:50;;;;;;;0.00;0.00;;;31.70;48.30;;;;;;5082512;28;20024;-78
2023/08/18 12:37:18;;;;;;;0.00;0.00;;;31.70;48.70;;;;;;5082492;28;20050;-75
2023/08/18 12:39:45;;;;;;;0.00;0.00;;;31.70;49.10;;;;;;5083584;28;20032;-76
2023/08/18 12:42:10;;;;;;;0.63;0.63;;;31.70;50.40;;;;;;5083750;28;20394;-75
2023/08/18 12:44:37;;;;;;;0.00;0.00;;;31.80;52.40;;;;;;5083488;28;20020;-75
2023/08/18 12:47:04;;;;;;;0.10;0.10;;;31.80;50.60;;;;;;5083518;28;20032;-77
2023/08/18 12:49:30;;;;;;;0.20;0.10;;;31.70;49.80;;;;;;5083212;28;20035;-75